Terminal Aerodrome Forecast
Issued by NWS

Home | Current Version | Previous Version | Text Only | Print | Product List | Glossary On
Versions: 1 2 3 4 5 6 7 8 9 10 11 12 13 14 15
000
FTUS45 KREV 222320
TAFMMH
TAF
KMMH 222320Z 2300/2324 29009KT P6SM VCSH SCT030 BKN045
     FM230100 31011KT P6SM VCSH SCT035 BKN050
     FM230600 27005KT P6SM SCT025 BKN050=

USA.gov is the U.S. government's official web portal to all federal, state and local government web resources and services.